McHenry, Kentucky
Current Conditions -  °F | °C
As of 7:15 PM on Saturday 22 Nov 2014 (Local Time) from K2I0 Reporting Station
Clear Clear  
Wind Chill: 58°   Ceiling: Unl
Heat Index: 58°   Visibility: 10mi
Dew Point: 36°   Wind: 8mph
Humidity: 43%   Direction: 190°S
Pressure: 30.06"   Gusts: NA
Location:  37.38°N, 86.92°W
Report Text: K2I0 230115Z AUTO 19007KT 10SM CLR 15/02 A3006 RMK AO2 T01470022
Loading
Personal Weather Stations






























Interactive Weather Map New forecast layout! Learn more

10-Day Weather Forecast

Advertisements
Track Severe Weather on mobile